createdAt,value
2023-07-15T00:01:37.752Z,4.10
2023-07-15T00:04:12.732Z,3.97
2023-07-15T00:06:40.557Z,4.37
2023-07-15T00:09:07.638Z,3.70
2023-07-15T00:11:45.540Z,3.40
2023-07-15T00:14:19.186Z,3.80
2023-07-15T00:16:46.217Z,3.80
2023-07-15T00:19:13.378Z,3.70
2023-07-15T00:21:40.713Z,3.73
2023-07-15T00:24:09.120Z,3.70
2023-07-15T00:26:36.168Z,3.93
2023-07-15T00:29:05.495Z,3.60
2023-07-15T00:31:34.010Z,4.27
2023-07-15T00:34:01.512Z,3.60
2023-07-15T00:36:28.659Z,3.60
2023-07-15T00:38:55.449Z,3.90
2023-07-15T00:41:27.763Z,3.53
2023-07-15T00:43:54.548Z,3.70
2023-07-15T00:46:24.297Z,4.60
2023-07-15T00:48:58.023Z,3.70
2023-07-15T00:51:26.927Z,4.33
2023-07-15T00:53:55.224Z,4.70
2023-07-15T00:56:23.242Z,4.27
2023-07-15T00:58:51.713Z,4.67
2023-07-15T01:01:18.894Z,4.93
2023-07-15T01:03:46.503Z,4.47
2023-07-15T01:06:14.233Z,4.07
2023-07-15T01:08:41.740Z,4.13
2023-07-15T01:11:08.953Z,3.87
2023-07-15T01:13:35.789Z,4.10
2023-07-15T01:16:02.714Z,4.63
2023-07-15T01:18:32.657Z,4.23
2023-07-15T01:21:00.735Z,4.60
2023-07-15T01:23:28.809Z,5.07
2023-07-15T01:25:56.652Z,4.23
2023-07-15T01:28:23.850Z,4.90
2023-07-15T01:30:50.929Z,5.37
2023-07-15T01:33:17.725Z,4.97
2023-07-15T01:35:48.761Z,5.07
2023-07-15T01:38:16.680Z,5.00
2023-07-15T01:40:44.337Z,5.47
2023-07-15T01:43:11.958Z,5.53
2023-07-15T01:45:40.722Z,6.03
2023-07-15T01:48:11.194Z,5.67
2023-07-15T01:50:38.018Z,5.70
2023-07-15T01:53:06.219Z,3.90
2023-07-15T01:55:33.143Z,4.20
2023-07-15T01:58:00.026Z,4.57
2023-07-15T02:00:26.869Z,4.30
2023-07-15T02:02:53.684Z,3.70
2023-07-15T02:05:20.551Z,4.03
2023-07-15T02:07:47.357Z,3.97
2023-07-15T02:10:14.271Z,3.90
2023-07-15T02:12:41.011Z,4.00
2023-07-15T02:15:08.643Z,3.80
2023-07-15T02:17:35.522Z,3.83
2023-07-15T02:20:02.810Z,4.00
2023-07-15T02:22:29.599Z,3.97
2023-07-15T02:24:56.381Z,3.83
2023-07-15T02:27:23.194Z,3.80
2023-07-15T02:29:49.904Z,4.27
2023-07-15T02:32:40.695Z,4.10
2023-07-15T02:35:13.483Z,3.77
2023-07-15T02:37:42.481Z,3.67
2023-07-15T02:40:11.718Z,4.37
2023-07-15T02:42:40.299Z,4.40
2023-07-15T02:45:09.280Z,3.83
2023-07-15T02:47:36.733Z,3.77
2023-07-15T02:50:10.461Z,3.80
2023-07-15T02:52:39.023Z,4.80
2023-07-15T02:55:09.498Z,3.90
2023-07-15T02:57:37.090Z,4.17
2023-07-15T03:00:17.188Z,4.03
2023-07-15T03:02:50.753Z,3.60
2023-07-15T03:05:18.021Z,4.00
2023-07-15T03:07:46.736Z,4.27
2023-07-15T03:10:14.627Z,4.90
2023-07-15T03:12:41.484Z,4.17
2023-07-15T03:15:08.681Z,3.93
2023-07-15T03:17:37.272Z,3.60
2023-07-15T03:20:15.854Z,4.20
2023-07-15T03:22:44.070Z,3.70
2023-07-15T03:25:11.328Z,3.97
2023-07-15T03:27:38.904Z,3.90
2023-07-15T03:30:09.206Z,4.60
2023-07-15T03:32:37.947Z,4.17
2023-07-15T03:35:05.408Z,3.87
2023-07-15T03:37:33.727Z,4.30
2023-07-15T03:40:00.745Z,4.13
2023-07-15T03:42:28.627Z,4.20
2023-07-15T03:44:55.352Z,4.13
2023-07-15T03:47:22.169Z,3.67
2023-07-15T03:49:49.030Z,4.73
2023-07-15T03:52:15.828Z,3.70
2023-07-15T03:54:45.684Z,3.90
2023-07-15T03:57:12.639Z,3.80
2023-07-15T03:59:39.584Z,4.07
2023-07-15T04:02:06.913Z,3.87
2023-07-15T04:04:33.829Z,3.97
2023-07-15T04:07:01.641Z,4.33
2023-07-15T04:09:29.254Z,4.23
2023-07-15T04:11:56.930Z,4.63
2023-07-15T04:14:23.750Z,3.93
2023-07-15T04:16:50.515Z,5.23
2023-07-15T04:19:17.390Z,4.97
2023-07-15T04:21:44.166Z,5.20
2023-07-15T04:24:11.313Z,5.30
2023-07-15T04:26:38.102Z,5.37
2023-07-15T04:29:04.970Z,5.23
2023-07-15T04:31:31.835Z,4.80
2023-07-15T04:33:58.763Z,4.93
2023-07-15T04:36:25.793Z,4.33
2023-07-15T04:38:52.636Z,4.90
2023-07-15T04:41:19.578Z,4.13
2023-07-15T04:43:46.466Z,4.77
2023-07-15T04:46:13.856Z,4.90
2023-07-15T04:48:41.039Z,5.63
2023-07-15T04:51:08.292Z,5.70
2023-07-15T04:53:35.174Z,5.97
2023-07-15T04:56:02.039Z,4.97
2023-07-15T04:58:28.806Z,5.23
2023-07-15T05:00:55.582Z,4.77
2023-07-15T05:03:22.396Z,4.70
2023-07-15T05:05:49.136Z,4.20
2023-07-15T05:08:19.591Z,4.53
2023-07-15T05:10:55.828Z,4.47
2023-07-15T05:13:22.601Z,4.30
2023-07-15T05:15:49.397Z,4.07
2023-07-15T05:18:17.379Z,4.10
2023-07-15T05:20:44.180Z,4.37
2023-07-15T05:23:11.061Z,4.00
2023-07-15T05:25:38.020Z,3.80
2023-07-15T05:28:05.054Z,4.30
2023-07-15T05:30:31.841Z,3.93
2023-07-15T05:32:59.490Z,3.97
2023-07-15T05:35:26.326Z,4.00
2023-07-15T05:37:53.142Z,4.70
2023-07-15T05:40:20.071Z,3.90
2023-07-15T05:42:47.113Z,4.20
2023-07-15T05:45:14.234Z,4.67
2023-07-15T05:47:41.951Z,4.20
2023-07-15T05:50:09.996Z,4.47
2023-07-15T05:52:37.393Z,4.10
2023-07-15T05:55:06.509Z,4.10
2023-07-15T05:57:33.450Z,3.90
2023-07-15T06:00:00.595Z,3.90
2023-07-15T06:02:27.921Z,4.33
2023-07-15T06:04:54.942Z,4.13
2023-07-15T06:07:22.130Z,4.30
2023-07-15T06:09:52.924Z,3.87
2023-07-15T06:12:20.010Z,5.43
2023-07-15T06:14:46.783Z,4.20
2023-07-15T06:17:13.819Z,4.47
2023-07-15T06:19:40.976Z,4.43
2023-07-15T06:22:08.217Z,4.60
2023-07-15T06:24:35.521Z,4.60
2023-07-15T06:27:02.322Z,4.60
2023-07-15T06:29:29.530Z,4.90
2023-07-15T06:31:56.273Z,4.53
2023-07-15T06:34:23.068Z,4.40
2023-07-15T06:36:50.854Z,4.20
2023-07-15T06:39:19.173Z,3.90
2023-07-15T06:41:45.934Z,4.17
2023-07-15T06:44:12.683Z,3.70
2023-07-15T06:46:39.607Z,4.00
2023-07-15T06:49:06.409Z,4.23
2023-07-15T06:51:33.188Z,4.10
2023-07-15T06:53:59.921Z,4.00
2023-07-15T06:56:26.674Z,4.23
2023-07-15T06:58:53.457Z,3.77
2023-07-15T07:01:20.627Z,4.07
2023-07-15T07:03:47.816Z,3.80
2023-07-15T07:06:14.883Z,3.90
2023-07-15T07:08:42.385Z,4.10
2023-07-15T07:11:09.290Z,4.07
2023-07-15T07:13:36.102Z,4.37
2023-07-15T07:16:03.016Z,4.03
2023-07-15T07:18:29.844Z,3.90
2023-07-15T07:20:58.007Z,4.30
2023-07-15T07:23:25.227Z,3.97
2023-07-15T07:25:52.531Z,4.03
2023-07-15T07:28:38.042Z,4.57
2023-07-15T07:31:04.981Z,3.77
2023-07-15T07:33:31.901Z,4.30
2023-07-15T07:35:58.745Z,3.83
2023-07-15T07:38:25.534Z,3.50
2023-07-15T07:40:52.743Z,3.93
2023-07-15T07:43:19.519Z,4.33
2023-07-15T07:45:46.425Z,3.50
2023-07-15T07:48:13.589Z,4.10
2023-07-15T07:50:40.363Z,3.80
2023-07-15T07:53:07.155Z,4.03
2023-07-15T07:55:33.921Z,3.80
2023-07-15T07:58:00.727Z,3.60
2023-07-15T08:00:27.479Z,3.63
2023-07-15T08:02:54.441Z,4.00
2023-07-15T08:05:21.281Z,3.70
2023-07-15T08:07:48.056Z,4.13
2023-07-15T08:10:14.842Z,3.63
2023-07-15T08:12:41.659Z,4.23
2023-07-15T08:15:09.489Z,4.00
2023-07-15T08:17:36.730Z,3.55
2023-07-15T08:20:04.714Z,3.53
2023-07-15T08:22:31.491Z,3.33
2023-07-15T08:24:58.369Z,3.63
2023-07-15T08:27:25.131Z,3.67
2023-07-15T08:29:52.532Z,3.60
2023-07-15T08:32:19.436Z,3.40
2023-07-15T08:35:05.794Z,3.42
2023-07-15T08:37:33.625Z,3.70
2023-07-15T08:40:00.562Z,3.30
2023-07-15T08:42:28.762Z,3.30
2023-07-15T08:44:56.662Z,3.30
2023-07-15T08:47:25.906Z,3.35
2023-07-15T08:49:54.957Z,3.42
2023-07-15T08:52:23.422Z,3.17
2023-07-15T08:54:53.391Z,3.30
2023-07-15T08:57:23.995Z,3.22
2023-07-15T08:59:54.440Z,3.20
2023-07-15T09:02:21.347Z,2.97
2023-07-15T09:04:48.301Z,3.47
2023-07-15T09:07:26.568Z,3.60
2023-07-15T09:09:53.356Z,3.55
2023-07-15T09:12:24.244Z,3.05
2023-07-15T09:14:54.536Z,3.22
2023-07-15T09:17:23.086Z,2.97
2023-07-15T09:19:50.523Z,2.97
2023-07-15T09:22:21.068Z,3.08
2023-07-15T09:24:47.929Z,3.00
2023-07-15T09:27:14.794Z,3.03
2023-07-15T09:29:41.723Z,2.75
2023-07-15T09:32:09.784Z,3.00
2023-07-15T09:34:42.061Z,3.25
2023-07-15T09:37:09.485Z,3.20
2023-07-15T09:39:37.498Z,3.85
2023-07-15T09:42:08.666Z,3.40
2023-07-15T09:44:38.265Z,2.58
2023-07-15T09:47:05.923Z,3.20
2023-07-15T09:49:33.734Z,2.72
2023-07-15T09:52:01.159Z,2.80
2023-07-15T09:54:28.488Z,2.70
2023-07-15T09:57:04.607Z,3.13
2023-07-15T09:59:54.121Z,2.75
2023-07-15T10:02:28.765Z,2.90
2023-07-15T10:05:04.874Z,2.80
2023-07-15T10:07:32.545Z,3.33
2023-07-15T10:10:02.556Z,2.35
2023-07-15T10:12:30.176Z,2.50
2023-07-15T10:14:58.189Z,2.58
2023-07-15T10:17:25.044Z,2.50
2023-07-15T10:19:54.091Z,2.28
2023-07-15T10:22:22.774Z,2.20
2023-07-15T10:24:59.238Z,2.40
2023-07-15T10:27:29.928Z,2.22
2023-07-15T10:30:27.015Z,2.20
2023-07-15T10:33:10.711Z,2.35
2023-07-15T10:35:43.522Z,2.25
2023-07-15T10:38:29.392Z,2.65
2023-07-15T10:41:06.607Z,2.00
2023-07-15T10:43:37.394Z,2.10
2023-07-15T10:46:06.780Z,2.28
2023-07-15T10:48:34.425Z,2.20
2023-07-15T10:51:04.505Z,2.20
2023-07-15T10:53:31.578Z,2.28
2023-07-15T10:56:11.917Z,1.98
2023-07-15T10:58:39.695Z,1.90
2023-07-15T11:01:11.222Z,2.25
2023-07-15T11:03:43.372Z,2.10
2023-07-15T11:06:11.178Z,2.00
2023-07-15T11:08:41.168Z,1.95
2023-07-15T11:11:11.883Z,2.10
2023-07-15T11:13:42.061Z,1.98
2023-07-15T11:16:09.359Z,1.90
2023-07-15T11:18:36.220Z,1.88
2023-07-15T11:21:03.084Z,1.73
2023-07-15T11:23:31.386Z,2.00
2023-07-15T11:25:59.224Z,2.22
2023-07-15T11:28:26.264Z,2.05
2023-07-15T11:30:53.300Z,1.90
2023-07-15T11:33:20.466Z,1.80
2023-07-15T11:35:47.681Z,2.20
2023-07-15T11:38:15.884Z,2.03
2023-07-15T11:40:56.793Z,2.13
2023-07-15T11:43:25.689Z,1.75
2023-07-15T11:46:00.917Z,2.00
2023-07-15T11:48:30.213Z,1.75
2023-07-15T11:50:58.492Z,1.60
2023-07-15T11:53:32.331Z,1.85
2023-07-15T11:55:59.924Z,1.70
2023-07-15T11:58:47.038Z,1.98
2023-07-15T12:01:15.962Z,1.80
2023-07-15T12:03:44.871Z,1.85
2023-07-15T12:06:18.279Z,2.00
2023-07-15T12:09:00.177Z,1.80
2023-07-15T12:11:27.144Z,1.40
2023-07-15T12:13:54.003Z,1.85
2023-07-15T12:16:24.748Z,1.88
2023-07-15T12:18:52.040Z,1.83
2023-07-15T12:21:18.965Z,1.63
2023-07-15T12:23:45.891Z,1.60
2023-07-15T12:26:13.358Z,1.80
2023-07-15T12:28:40.463Z,1.58
2023-07-15T12:31:07.396Z,1.45
2023-07-15T12:33:34.174Z,1.42
2023-07-15T12:36:01.040Z,1.60
2023-07-15T12:38:27.858Z,1.73
2023-07-15T12:40:54.623Z,1.80
2023-07-15T12:43:22.010Z,1.65
2023-07-15T12:45:48.995Z,1.70
2023-07-15T12:48:15.821Z,1.85
2023-07-15T12:50:42.614Z,2.00
2023-07-15T12:53:09.384Z,2.03
2023-07-15T12:55:36.196Z,1.50
2023-07-15T12:58:03.040Z,1.95
2023-07-15T13:00:29.956Z,1.60
2023-07-15T13:02:56.903Z,1.70
2023-07-15T13:05:23.809Z,1.67
2023-07-15T13:07:50.679Z,1.70
2023-07-15T13:10:17.667Z,1.80
2023-07-15T13:12:44.473Z,1.92
2023-07-15T13:15:11.433Z,1.70
2023-07-15T13:17:41.375Z,1.65
2023-07-15T13:20:10.618Z,1.90
2023-07-15T13:22:38.643Z,1.45
2023-07-15T13:25:06.906Z,1.70
2023-07-15T13:27:34.762Z,1.63
2023-07-15T13:30:01.551Z,2.05
2023-07-15T13:32:28.496Z,1.67
2023-07-15T13:34:55.690Z,1.60
2023-07-15T13:37:22.511Z,1.90
2023-07-15T13:39:49.747Z,1.60
2023-07-15T13:42:20.602Z,1.70
2023-07-15T13:44:48.754Z,1.60
2023-07-15T13:47:16.010Z,1.80
2023-07-15T13:49:43.064Z,1.65
2023-07-15T13:52:09.862Z,1.50
2023-07-15T13:54:36.858Z,1.73
2023-07-15T13:57:03.856Z,1.60
2023-07-15T13:59:30.984Z,1.63
2023-07-15T14:01:57.728Z,1.83
2023-07-15T14:04:24.502Z,1.52
2023-07-15T14:06:51.375Z,1.60
2023-07-15T14:09:18.487Z,2.03
2023-07-15T14:11:47.654Z,1.75
2023-07-15T14:14:17.917Z,1.85
2023-07-15T14:16:44.899Z,1.45
2023-07-15T14:19:12.046Z,1.90
2023-07-15T14:21:38.778Z,1.70
2023-07-15T14:24:05.896Z,1.80
2023-07-15T14:26:34.558Z,1.70
2023-07-15T14:29:01.449Z,1.75
2023-07-15T14:31:29.292Z,1.77
2023-07-15T14:33:56.146Z,1.70
2023-07-15T14:36:23.385Z,1.80
2023-07-15T14:38:50.894Z,1.90
2023-07-15T14:41:18.586Z,1.90
2023-07-15T14:43:45.724Z,1.95
2023-07-15T14:46:12.737Z,1.88
2023-07-15T14:48:41.221Z,1.80
2023-07-15T14:51:08.517Z,1.88
2023-07-15T14:53:35.435Z,1.98
2023-07-15T14:56:02.858Z,1.80
2023-07-15T14:58:29.756Z,1.70
2023-07-15T15:00:56.634Z,1.50
2023-07-15T15:03:23.581Z,1.92
2023-07-15T15:05:50.493Z,1.88
2023-07-15T15:08:17.406Z,1.90
2023-07-15T15:10:44.194Z,1.60
2023-07-15T15:13:11.020Z,1.95
2023-07-15T15:15:37.787Z,2.10
2023-07-15T15:18:04.843Z,1.70
2023-07-15T15:20:31.921Z,1.80
2023-07-15T15:22:58.900Z,1.75
2023-07-15T15:25:25.757Z,1.60
2023-07-15T15:27:52.676Z,1.80
2023-07-15T15:30:19.470Z,2.00
2023-07-15T15:32:46.446Z,1.70
2023-07-15T15:35:13.444Z,1.70
2023-07-15T15:37:40.207Z,1.92
2023-07-15T15:40:07.641Z,1.75
2023-07-15T15:42:34.386Z,1.98
2023-07-15T15:45:01.765Z,1.92
2023-07-15T15:47:29.005Z,1.83
2023-07-15T15:49:55.832Z,1.88
2023-07-15T15:52:23.579Z,2.35
2023-07-15T15:54:50.380Z,2.05
2023-07-15T15:57:17.144Z,2.53
2023-07-15T15:59:44.462Z,2.10
2023-07-15T16:02:11.911Z,1.70
2023-07-15T16:04:38.725Z,2.00
2023-07-15T16:07:05.782Z,2.00
2023-07-15T16:09:32.652Z,2.13
2023-07-15T16:11:59.499Z,2.03
2023-07-15T16:14:26.227Z,2.20
2023-07-15T16:16:53.053Z,1.98
2023-07-15T16:19:19.813Z,2.25
2023-07-15T16:21:46.586Z,1.77
2023-07-15T16:24:13.336Z,1.75
2023-07-15T16:26:40.068Z,2.00
2023-07-15T16:29:06.789Z,1.77
2023-07-15T16:31:35.887Z,1.80
2023-07-15T16:34:04.865Z,1.80
2023-07-15T16:36:31.616Z,1.90
2023-07-15T16:38:58.374Z,2.00
2023-07-15T16:41:25.104Z,1.80
2023-07-15T16:43:54.719Z,1.75
2023-07-15T16:46:21.838Z,1.77
2023-07-15T16:48:48.683Z,1.77
2023-07-15T16:51:15.960Z,2.10
2023-07-15T16:53:42.895Z,1.73
2023-07-15T16:56:10.133Z,2.10
2023-07-15T16:58:36.887Z,2.00
2023-07-15T17:01:04.958Z,2.20
2023-07-15T17:03:32.026Z,1.75
2023-07-15T17:05:58.926Z,2.15
2023-07-15T17:08:25.738Z,1.80
2023-07-15T17:10:52.524Z,2.20
2023-07-15T17:13:19.317Z,1.90
2023-07-15T17:15:46.155Z,1.88
2023-07-15T17:18:12.984Z,2.65
2023-07-15T17:20:39.833Z,2.20
2023-07-15T17:23:06.854Z,2.80
2023-07-15T17:25:33.879Z,2.00
2023-07-15T17:28:00.881Z,1.80
2023-07-15T17:30:27.673Z,2.33
2023-07-15T17:32:54.539Z,2.50
2023-07-15T17:35:21.367Z,2.00
2023-07-15T17:37:48.210Z,1.80
2023-07-15T17:40:14.992Z,1.90
2023-07-15T17:42:41.784Z,2.63
2023-07-15T17:45:09.008Z,2.72
2023-07-15T17:47:37.335Z,2.75
2023-07-15T17:50:04.680Z,2.50
2023-07-15T17:52:31.574Z,2.47
2023-07-15T17:55:00.701Z,2.40
2023-07-15T17:57:31.833Z,2.30
2023-07-15T17:59:58.663Z,2.55
2023-07-15T18:02:25.441Z,2.35
2023-07-15T18:04:53.136Z,2.88
2023-07-15T18:07:22.793Z,2.10
2023-07-15T18:09:49.569Z,2.30
2023-07-15T18:12:19.039Z,2.30
2023-07-15T18:14:45.934Z,2.22
2023-07-15T18:17:12.754Z,2.50
2023-07-15T18:19:39.632Z,2.38
2023-07-15T18:22:06.826Z,2.65
2023-07-15T18:24:33.643Z,2.60
2023-07-15T18:27:00.599Z,3.00
2023-07-15T18:29:27.681Z,2.67
2023-07-15T18:31:54.595Z,2.70
2023-07-15T18:34:24.684Z,2.83
2023-07-15T18:36:52.673Z,2.83
2023-07-15T18:39:19.560Z,2.70
2023-07-15T18:41:47.004Z,3.28
2023-07-15T18:44:13.932Z,3.03
2023-07-15T18:46:41.309Z,3.15
2023-07-15T18:49:08.165Z,2.85
2023-07-15T18:51:36.385Z,3.47
2023-07-15T18:54:03.227Z,3.10
2023-07-15T18:56:29.952Z,2.63
2023-07-15T18:58:56.719Z,3.13
2023-07-15T19:01:23.593Z,2.85
2023-07-15T19:03:50.369Z,3.42
2023-07-15T19:06:17.175Z,3.35
2023-07-15T19:08:43.985Z,3.10
2023-07-15T19:11:10.938Z,2.90
2023-07-15T19:13:38.345Z,2.50
2023-07-15T19:16:05.531Z,2.58
2023-07-15T19:18:32.278Z,2.65
2023-07-15T19:20:59.097Z,2.80
2023-07-15T19:23:25.885Z,2.72
2023-07-15T19:25:52.911Z,2.20
2023-07-15T19:28:19.713Z,2.47
2023-07-15T19:30:46.777Z,2.92
2023-07-15T19:33:13.708Z,2.65
2023-07-15T19:35:40.548Z,2.55
2023-07-15T19:38:07.360Z,2.58
2023-07-15T19:40:34.117Z,2.53
2023-07-15T19:43:01.918Z,2.35
2023-07-15T19:45:28.842Z,2.53
2023-07-15T19:47:56.677Z,2.35
2023-07-15T19:50:23.714Z,2.60
2023-07-15T19:52:50.813Z,2.78
2023-07-15T19:55:18.643Z,2.20
2023-07-15T19:57:45.362Z,2.58
2023-07-15T20:00:12.632Z,2.78
2023-07-15T20:02:39.388Z,3.20
2023-07-15T20:05:06.365Z,2.67
2023-07-15T20:07:33.207Z,2.80
2023-07-15T20:10:00.023Z,2.50
2023-07-15T20:12:27.042Z,2.60
2023-07-15T20:14:54.108Z,2.42
2023-07-15T20:17:20.907Z,2.72
2023-07-15T20:19:47.873Z,3.05
2023-07-15T20:22:17.601Z,2.58
2023-07-15T20:24:45.393Z,3.13
2023-07-15T20:27:12.776Z,2.80
2023-07-15T20:29:45.733Z,2.72
2023-07-15T20:32:14.174Z,2.78
2023-07-15T20:34:40.941Z,2.80
2023-07-15T20:37:07.736Z,3.00
2023-07-15T20:39:35.803Z,2.70
2023-07-15T20:42:02.613Z,3.05
2023-07-15T20:44:29.586Z,3.33
2023-07-15T20:46:56.431Z,3.47
2023-07-15T20:49:23.273Z,3.00
2023-07-15T20:51:50.132Z,3.72
2023-07-15T20:54:16.882Z,3.30
2023-07-15T20:56:43.609Z,2.97
2023-07-15T20:59:10.524Z,3.25
2023-07-15T21:01:37.323Z,2.92
2023-07-15T21:04:04.362Z,2.80
2023-07-15T21:06:31.168Z,3.05
2023-07-15T21:08:57.964Z,3.50
2023-07-15T21:11:24.739Z,2.92
2023-07-15T21:13:51.678Z,3.35
2023-07-15T21:16:18.889Z,3.45
2023-07-15T21:18:47.640Z,3.15
2023-07-15T21:21:14.590Z,3.97
2023-07-15T21:23:41.436Z,3.13
2023-07-15T21:26:08.408Z,3.85
2023-07-15T21:28:37.411Z,3.10
2023-07-15T21:31:04.996Z,3.50
2023-07-15T21:33:31.992Z,3.25
2023-07-15T21:35:59.114Z,3.30
2023-07-15T21:38:26.690Z,3.55
2023-07-15T21:40:53.944Z,3.38
2023-07-15T21:43:24.334Z,3.35
2023-07-15T21:45:51.347Z,3.67
2023-07-15T21:48:19.180Z,3.58
2023-07-15T21:50:46.236Z,3.70
2023-07-15T21:53:13.399Z,4.00
2023-07-15T21:55:40.410Z,3.83
2023-07-15T21:58:07.264Z,4.20
2023-07-15T22:00:35.816Z,3.50
2023-07-15T22:03:03.773Z,3.90
2023-07-15T22:05:30.740Z,3.40
2023-07-15T22:07:59.933Z,3.33
2023-07-15T22:10:27.208Z,2.83
2023-07-15T22:12:54.006Z,3.20
2023-07-15T22:15:20.744Z,3.10
2023-07-15T22:17:47.679Z,3.03
2023-07-15T22:20:14.456Z,3.20
2023-07-15T22:22:41.316Z,2.80
2023-07-15T22:25:08.691Z,2.90
2023-07-15T22:27:35.785Z,3.20
2023-07-15T22:30:03.021Z,3.22
2023-07-15T22:32:29.778Z,3.35
2023-07-15T22:34:56.584Z,3.10
2023-07-15T22:37:26.418Z,3.05
2023-07-15T22:39:53.366Z,4.35
2023-07-15T22:42:20.134Z,2.83
2023-07-15T22:44:47.061Z,3.10
2023-07-15T22:47:14.019Z,3.08
2023-07-15T22:49:40.917Z,3.70
2023-07-15T22:52:07.798Z,2.80
2023-07-15T22:54:34.566Z,2.60
2023-07-15T22:57:01.460Z,2.92
2023-07-15T22:59:28.272Z,3.10
2023-07-15T23:01:55.153Z,3.08
2023-07-15T23:04:21.942Z,3.22
2023-07-15T23:06:48.718Z,3.20
2023-07-15T23:09:15.504Z,2.78
2023-07-15T23:11:42.359Z,3.03
2023-07-15T23:14:09.179Z,3.15
2023-07-15T23:16:36.061Z,3.03
2023-07-15T23:19:02.874Z,2.92
2023-07-15T23:21:29.684Z,3.10
2023-07-15T23:23:56.462Z,3.15
2023-07-15T23:26:23.805Z,3.33
2023-07-15T23:28:50.726Z,2.70
2023-07-15T23:31:18.742Z,2.97
2023-07-15T23:33:45.616Z,2.67
2023-07-15T23:36:12.464Z,2.40
2023-07-15T23:38:39.358Z,2.60
2023-07-15T23:41:08.311Z,2.95
2023-07-15T23:43:36.454Z,3.15
2023-07-15T23:46:03.228Z,3.10
2023-07-15T23:48:29.993Z,2.72
2023-07-15T23:50:57.838Z,2.83
2023-07-15T23:53:24.581Z,2.80
2023-07-15T23:55:51.338Z,3.00
2023-07-15T23:58:18.088Z,3.10
